Meteo Giornale » Osservazioni meteo Croazia » Pula Aerodrome

ore: 08:30 - Osservazioni Meteo Pula Aerodrome
Lat. 45° 54' N Lon. 13° 55' E Alt. 63 metri s.l.m.

molto_nuvoloso Europe/Zagreb

7 °C

Molto Nuvoloso

Temp. 24 Ore

3 °C

8 °C

Est

7.4 Km/h

Dew point 5 °C

Umidità 87 %

Visibilità  10 Km

Il sole sorge alle ore 07:27

Il sole tramonta alle ore 16:21

Data e Ora Cielo e Fenomeni T °C DP °C Um. % Pres. hPa Vis. km Vento km/h
Oggi h: 08:30 molto_nuvoloso Molto Nuvoloso 7 5 87 1003 10 E 7.4
Oggi h: 08:00 molto_nuvoloso Molto Nuvoloso 4 3 93 1003 10 NE 7.4
Oggi h: 07:30 nuvoloso Nuvoloso 4 2 86 1003 10 N 5.5
Oggi h: 07:00 poco_nuvoloso Poco Nuvoloso 3 2 93 1003 10 E 9.3
Oggi h: 06:30 poco_nuvoloso Poco Nuvoloso 4 2 86 1003 10 E 7.4
Oggi h: 06:00 molto_nuvoloso Molto Nuvoloso 3 1 86 1003 10 NE 11.1
Oggi h: 05:30 molto_nuvoloso Molto Nuvoloso 4 2 86 1003 10 E 7.4
Oggi h: 05:00 molto_nuvoloso Molto Nuvoloso 6 3 81 1003 10 NE 13
Oggi h: 04:30 molto_nuvoloso Molto Nuvoloso 5 3 86 1004 10 N 5.5
Oggi h: 04:00 molto_nuvoloso Molto Nuvoloso 5 3 86 1004 10 N 3.7
Oggi h: 03:30 molto_nuvoloso Molto Nuvoloso 6 3 81 1004 10 N 5.5
Oggi h: 03:00 molto_nuvoloso Molto Nuvoloso 6 3 81 1004 10 NE 9.3
Oggi h: 02:30 molto_nuvoloso Molto Nuvoloso 6 3 81 1004 10 N/NE 7.4
Oggi h: 02:00 molto_nuvoloso Molto Nuvoloso 6 3 81 1004 10 N/NE 9.3
Oggi h: 01:30 coperto Coperto 6 4 86 1005 10 NE 7.4
Oggi h: 01:00 coperto Coperto 6 4 86 1005 10 N 3.7
Oggi h: 00:30 coperto Coperto 6 4 86 1005 10 N 5.5
Oggi h: 00:00 coperto Coperto 5 4 93 1005 10 E 7.4
Ieri h: 23:30 molto_nuvoloso Molto Nuvoloso 6 4 86 1005 10 N/NE 7.4
Ieri h: 23:00 molto_nuvoloso Molto Nuvoloso 6 4 86 1005 10 N 5.5
Ieri h: 22:30 molto_nuvoloso Molto Nuvoloso 5 4 93 1005 10 NE 7.4
Ieri h: 22:00 molto_nuvoloso Molto Nuvoloso 4 3 93 1005 10 N 1.8
Ieri h: 21:30 nuvoloso Nuvoloso 3 2 93 1005 10 N 3.7
Ieri h: 21:00 sereno Sereno 3 2 93 1005 10 N 3.7
Ieri h: 20:30 sereno Sereno 4 3 93 1005 10 N 0
Ieri h: 19:30 poco_nuvoloso Poco Nuvoloso 5 4 93 1006 10 N 7.4
Ieri h: 19:00 poco_nuvoloso Poco Nuvoloso 5 4 93 1006 10 N 3.7
Ieri h: 18:30 nuvoloso Nuvoloso 5 4 93 1006 10 N 5.5
Ieri h: 18:00 nuvoloso Nuvoloso 6 4 86 1006 10 N 3.7
Ieri h: 17:30 nuvoloso Nuvoloso 6 4 86 1006 10 N 3.7
Ieri h: 17:00 molto_nuvoloso Molto Nuvoloso 6 4 86 1006 10 N 1.8
Ieri h: 16:00 molto_nuvoloso Molto Nuvoloso 7 5 87 1006 10 O/NO 7.4
Ieri h: 15:30 molto_nuvoloso Molto Nuvoloso 8 5 81 1006 10 O 7.4
Ieri h: 15:00 molto_nuvoloso Molto Nuvoloso 8 5 81 1006 10 O 7.4
Ieri h: 14:30 molto_nuvoloso Molto Nuvoloso 8 5 81 1006 10 N 3.7
Ieri h: 14:00 molto_nuvoloso Molto Nuvoloso 8 5 81 1006 10 O/NO 7.4
Ieri h: 13:30 molto_nuvoloso Molto Nuvoloso 8 5 81 1006 10 O 9.3
Ieri h: 13:00 molto_nuvoloso Molto Nuvoloso 8 5 81 1006 10 O 9.3
Ieri h: 12:30 molto_nuvoloso Molto Nuvoloso 8 4 75 1007 10 N 3.7
Ieri h: 12:00 molto_nuvoloso Molto Nuvoloso 8 5 81 1007 10 O/NO 7.4
Ieri h: 11:30 molto_nuvoloso Molto Nuvoloso 8 5 81 1007 10 N 5.5
Ieri h: 11:00 molto_nuvoloso Molto Nuvoloso 8 5 81 1007 10 O/NO 7.4
Ieri h: 10:30 coperto Coperto 8 6 87 1008 10 N 5.5
Ieri h: 10:00 coperto Coperto 8 6 87 1008 10 N 3.7
Ieri h: 09:30 coperto Coperto 7 6 93 1007 10 N 5.5
Ieri h: 09:00 coperto Coperto 7 6 93 1007 10 N 0
Ieri h: 08:30 coperto Coperto 7 6 93 1007 10 N 3.7
Ieri h: 08:00 coperto Coperto 7 6 93 1007 10 N 0